createdAt,value
2019-04-07T00:01:00.824Z,29.52
2019-04-07T00:03:08.048Z,34.45
2019-04-07T00:05:16.158Z,31.25
2019-04-07T00:07:24.184Z,28.45
2019-04-07T00:09:32.071Z,33.78
2019-04-07T00:11:38.997Z,28.95
2019-04-07T00:13:46.084Z,30.15
2019-04-07T00:15:55.836Z,35.30
2019-04-07T00:18:02.589Z,32.30
2019-04-07T00:20:09.808Z,29.85
2019-04-07T00:22:17.016Z,30.85
2019-04-07T00:24:23.920Z,25.77
2019-04-07T00:26:31.153Z,31.45
2019-04-07T00:28:38.019Z,30.52
2019-04-07T00:30:46.001Z,27.45
2019-04-07T00:32:52.783Z,29.02
2019-04-07T00:34:59.957Z,30.85
2019-04-07T00:37:07.913Z,29.50
2019-04-07T00:39:14.844Z,29.40
2019-04-07T00:41:22.123Z,33.30
2019-04-07T00:43:29.231Z,30.90
2019-04-07T00:45:36.152Z,29.37
2019-04-07T00:47:42.959Z,27.32
2019-04-07T00:49:50.136Z,33.18
2019-04-07T00:51:57.530Z,32.80
2019-04-07T00:54:05.068Z,31.12
2019-04-07T00:56:13.146Z,32.45
2019-04-07T00:58:21.364Z,29.87
2019-04-07T01:00:29.940Z,28.83
2019-04-07T01:02:37.541Z,30.62
2019-04-07T01:04:44.622Z,32.20
2019-04-07T01:06:53.738Z,26.25
2019-04-07T01:09:01.104Z,29.20
2019-04-07T01:11:09.821Z,32.78
2019-04-07T01:13:16.759Z,28.83
2019-04-07T01:15:24.110Z,30.15
2019-04-07T01:17:31.134Z,26.23
2019-04-07T01:19:40.701Z,29.87
2019-04-07T01:23:56.931Z,33.02
2019-04-07T01:26:03.714Z,29.25
2019-04-07T01:28:11.004Z,30.23
2019-04-07T01:30:18.359Z,30.97
2019-04-07T01:32:25.706Z,32.00
2019-04-07T01:34:32.528Z,29.12
2019-04-07T01:36:39.300Z,27.10
2019-04-07T01:38:46.105Z,30.12
2019-04-07T01:40:57.388Z,27.37
2019-04-07T01:43:09.164Z,31.90
2019-04-07T01:45:24.782Z,31.42
2019-04-07T01:47:33.153Z,33.53
2019-04-07T01:49:47.650Z,32.25
2019-04-07T01:52:14.268Z,26.48
2019-04-07T01:54:24.958Z,30.48
2019-04-07T01:56:32.718Z,31.20
2019-04-07T01:58:41.594Z,30.23
2019-04-07T02:00:48.406Z,32.58
2019-04-07T02:03:12.878Z,33.75
2019-04-07T02:05:34.307Z,33.08
2019-04-07T02:07:44.581Z,29.25
2019-04-07T02:09:58.711Z,29.07
2019-04-07T02:12:18.106Z,31.82
2019-04-07T02:14:32.426Z,28.10
2019-04-07T02:16:51.265Z,30.55
2019-04-07T02:19:13.250Z,28.50
2019-04-07T02:21:29.603Z,30.37
2019-04-07T02:23:38.186Z,30.92
2019-04-07T02:25:46.911Z,32.53
2019-04-07T02:27:58.430Z,32.80
2019-04-07T02:30:14.511Z,30.43
2019-04-07T02:32:32.933Z,30.52
2019-04-07T02:34:57.480Z,32.97
2019-04-07T02:37:06.632Z,27.10
2019-04-07T02:41:38.798Z,28.32
2019-04-07T02:43:51.279Z,32.53
2019-04-07T02:46:02.633Z,34.58
2019-04-07T02:48:24.186Z,33.88
2019-04-07T02:50:36.684Z,29.85
2019-04-07T02:52:54.775Z,24.43
2019-04-07T02:55:04.719Z,35.20
2019-04-07T02:57:22.221Z,29.12
2019-04-07T02:59:31.194Z,29.30
2019-04-07T03:04:03.258Z,28.75
2019-04-07T03:06:10.294Z,27.05
2019-04-07T03:08:35.650Z,28.83
2019-04-07T03:10:57.635Z,26.85
2019-04-07T03:13:06.200Z,29.57
2019-04-07T03:15:16.133Z,30.80
2019-04-07T03:17:25.643Z,26.95
2019-04-07T03:19:40.270Z,28.35
2019-04-07T03:22:06.883Z,29.80
2019-04-07T03:24:26.517Z,30.70
2019-04-07T03:26:51.569Z,31.15
2019-04-07T03:29:03.699Z,33.08
2019-04-07T03:31:29.736Z,28.42
2019-04-07T03:33:45.435Z,30.50
2019-04-07T03:36:01.698Z,24.00
2019-04-07T03:38:08.624Z,31.02
2019-04-07T03:40:18.247Z,30.80
2019-04-07T03:42:32.825Z,32.73
2019-04-07T03:44:47.608Z,29.67
2019-04-07T03:46:59.877Z,31.68
2019-04-07T03:49:16.920Z,30.17
2019-04-07T03:51:25.683Z,27.17
2019-04-07T03:53:37.555Z,29.37
2019-04-07T03:55:49.469Z,31.50
2019-04-07T03:58:12.105Z,29.37
2019-04-07T04:01:13.609Z,29.87
2019-04-07T04:03:22.777Z,29.87
2019-04-07T04:05:34.292Z,30.45
2019-04-07T04:07:49.433Z,28.32
2019-04-07T04:10:14.152Z,27.20
2019-04-07T04:12:31.798Z,28.00
2019-04-07T04:14:59.857Z,29.12
2019-04-07T04:17:06.925Z,32.53
2019-04-07T04:19:14.457Z,33.88
2019-04-07T04:21:22.074Z,29.23
2019-04-07T04:23:30.283Z,29.42
2019-04-07T04:25:37.487Z,28.03
2019-04-07T04:27:44.692Z,34.05
2019-04-07T04:29:52.440Z,29.70
2019-04-07T04:31:59.873Z,31.33
2019-04-07T04:34:06.717Z,25.12
2019-04-07T04:36:13.587Z,29.67
2019-04-07T04:38:20.447Z,29.12
2019-04-07T04:40:28.082Z,30.68
2019-04-07T04:42:35.831Z,26.90
2019-04-07T04:44:44.207Z,27.50
2019-04-07T04:46:51.232Z,28.32
2019-04-07T04:48:58.900Z,30.70
2019-04-07T04:51:06.660Z,32.53
2019-04-07T04:53:13.643Z,29.48
2019-04-07T04:55:20.403Z,26.00
2019-04-07T04:57:27.191Z,29.25
2019-04-07T04:59:34.170Z,29.90
2019-04-07T05:01:40.931Z,27.73
2019-04-07T05:03:47.598Z,31.70
2019-04-07T05:05:54.584Z,28.80
2019-04-07T05:08:04.099Z,28.85
2019-04-07T05:10:10.349Z,26.33
2019-04-07T05:12:17.567Z,27.20
2019-04-07T05:14:25.764Z,27.48
2019-04-07T05:16:33.217Z,29.48
2019-04-07T05:18:41.709Z,25.30
2019-04-07T05:20:48.741Z,29.95
2019-04-07T05:22:55.499Z,27.85
2019-04-07T05:25:02.411Z,26.17
2019-04-07T05:27:09.722Z,30.20
2019-04-07T05:29:17.035Z,31.00
2019-04-07T05:31:23.714Z,29.18
2019-04-07T05:33:30.842Z,28.25
2019-04-07T05:35:37.963Z,26.75
2019-04-07T05:37:44.788Z,30.60
2019-04-07T05:39:51.634Z,28.75
2019-04-07T05:41:59.079Z,29.45
2019-04-07T05:44:06.328Z,32.63
2019-04-07T05:46:13.850Z,29.70
2019-04-07T05:48:21.605Z,32.25
2019-04-07T05:50:28.832Z,33.50
2019-04-07T05:52:39.582Z,30.52
2019-04-07T05:54:45.061Z,31.15
2019-04-07T05:56:52.595Z,32.73
2019-04-07T05:58:59.321Z,27.70
2019-04-07T06:01:06.359Z,32.63
2019-04-07T06:03:13.200Z,30.62
2019-04-07T06:05:19.919Z,31.52
2019-04-07T06:07:30.304Z,28.05
2019-04-07T06:09:35.112Z,31.80
2019-04-07T06:11:41.929Z,30.77
2019-04-07T06:13:48.770Z,28.00
2019-04-07T06:15:55.700Z,27.58
2019-04-07T06:18:02.633Z,28.67
2019-04-07T06:20:14.257Z,29.63
2019-04-07T06:22:20.776Z,37.20
2019-04-07T06:24:31.669Z,25.00
2019-04-07T06:26:37.003Z,30.00
2019-04-07T06:28:46.682Z,30.77
2019-04-07T06:30:53.062Z,28.32
2019-04-07T06:33:00.667Z,33.23
2019-04-07T06:35:12.365Z,31.87
2019-04-07T06:37:17.838Z,30.88
2019-04-07T06:39:24.569Z,29.35
2019-04-07T06:41:34.461Z,30.25
2019-04-07T06:43:41.526Z,30.72
2019-04-07T06:46:00.346Z,32.78
2019-04-07T06:48:09.337Z,28.20
2019-04-07T06:50:45.456Z,37.03
2019-04-07T06:52:45.177Z,33.60
2019-04-07T06:54:55.693Z,34.95
2019-04-07T06:57:20.120Z,33.47
2019-04-07T06:59:29.276Z,30.08
2019-04-07T07:01:39.307Z,32.95
2019-04-07T07:03:46.381Z,29.12
2019-04-07T07:06:11.095Z,32.75
2019-04-07T07:08:22.458Z,26.60
2019-04-07T07:10:37.832Z,27.27
2019-04-07T07:12:47.108Z,26.15
2019-04-07T07:15:03.648Z,25.20
2019-04-07T07:17:14.926Z,32.88
2019-04-07T07:19:28.558Z,25.30
2019-04-07T07:21:44.589Z,26.52
2019-04-07T07:23:52.729Z,26.27
2019-04-07T07:26:02.691Z,31.48
2019-04-07T07:28:11.537Z,22.37
2019-04-07T07:33:57.118Z,31.20
2019-04-07T07:36:24.651Z,27.35
2019-04-07T07:38:32.734Z,34.27
2019-04-07T07:40:40.591Z,36.35
2019-04-07T07:42:50.947Z,27.02
2019-04-07T07:44:58.363Z,29.20
2019-04-07T07:47:06.972Z,27.82
2019-04-07T07:49:13.791Z,24.60
2019-04-07T07:51:20.492Z,30.70
2019-04-07T07:53:28.601Z,28.55
2019-04-07T07:55:37.611Z,28.50
2019-04-07T07:57:44.115Z,31.42
2019-04-07T07:59:50.950Z,31.12
2019-04-07T08:01:58.703Z,33.50
2019-04-07T08:04:08.698Z,25.05
2019-04-07T08:06:16.088Z,30.95
2019-04-07T08:08:23.428Z,27.45
2019-04-07T08:10:30.369Z,27.30
2019-04-07T08:12:37.220Z,28.23
2019-04-07T08:14:44.647Z,33.78
2019-04-07T08:16:53.118Z,34.05
2019-04-07T08:19:00.750Z,28.60
2019-04-07T08:21:08.706Z,28.55
2019-04-07T08:23:15.587Z,27.58
2019-04-07T08:25:24.588Z,28.77
2019-04-07T08:27:32.056Z,29.07
2019-04-07T08:29:39.816Z,30.23
2019-04-07T08:31:51.486Z,26.77
2019-04-07T08:33:55.941Z,26.75
2019-04-07T08:36:03.517Z,27.75
2019-04-07T08:38:11.000Z,25.65
2019-04-07T08:40:18.743Z,25.52
2019-04-07T08:42:26.984Z,29.90
2019-04-07T08:44:34.424Z,32.15
2019-04-07T08:46:43.146Z,28.83
2019-04-07T08:48:52.680Z,29.67
2019-04-07T08:51:00.491Z,27.30
2019-04-07T08:53:10.359Z,27.85
2019-04-07T08:55:15.254Z,28.32
2019-04-07T08:57:23.120Z,30.43
2019-04-07T08:59:31.393Z,26.82
2019-04-07T09:01:40.452Z,28.57
2019-04-07T09:03:48.568Z,28.50
2019-04-07T09:05:57.770Z,27.50
2019-04-07T09:08:06.354Z,25.60
2019-04-07T09:10:18.326Z,31.62
2019-04-07T09:12:26.879Z,25.90
2019-04-07T09:14:33.274Z,24.50
2019-04-07T09:16:44.713Z,26.80
2019-04-07T09:19:09.959Z,28.45
2019-04-07T09:21:20.442Z,27.90
2019-04-07T09:23:29.471Z,31.93
2019-04-07T09:25:40.026Z,36.10
2019-04-07T09:27:54.077Z,27.22
2019-04-07T09:30:07.804Z,29.12
2019-04-07T09:32:31.306Z,25.30
2019-04-07T09:34:41.383Z,30.43
2019-04-07T09:36:53.515Z,28.40
2019-04-07T09:39:03.842Z,32.35
2019-04-07T09:41:13.185Z,32.13
2019-04-07T09:43:19.947Z,35.43
2019-04-07T09:45:28.839Z,25.08
2019-04-07T09:47:53.474Z,28.10
2019-04-07T09:50:20.430Z,25.57
2019-04-07T09:52:36.052Z,29.87
2019-04-07T09:54:44.434Z,29.63
2019-04-07T09:57:10.738Z,27.10
2019-04-07T09:59:29.672Z,27.32
2019-04-07T10:01:50.839Z,30.85
2019-04-07T10:04:14.553Z,28.55
2019-04-07T10:06:39.098Z,30.05
2019-04-07T10:09:03.312Z,27.77
2019-04-07T10:11:12.885Z,29.37
2019-04-07T10:13:21.546Z,30.23
2019-04-07T10:15:40.365Z,25.35
2019-04-07T10:17:49.567Z,29.50
2019-04-07T10:22:23.269Z,28.70
2019-04-07T10:24:34.555Z,25.57
2019-04-07T10:26:46.232Z,27.50
2019-04-07T10:29:04.415Z,27.17
2019-04-07T10:31:19.786Z,27.45
2019-04-07T10:33:30.417Z,28.30
2019-04-07T10:35:36.909Z,30.62
2019-04-07T10:37:51.038Z,25.17
2019-04-07T10:39:58.181Z,24.92
2019-04-07T10:42:16.819Z,27.85
2019-04-07T10:46:31.527Z,25.70
2019-04-07T10:48:53.659Z,26.60
2019-04-07T10:51:12.111Z,22.20
2019-04-07T10:53:27.306Z,22.52
2019-04-07T10:55:52.285Z,24.07
2019-04-07T10:57:59.747Z,24.27
2019-04-07T11:00:11.085Z,27.13
2019-04-07T11:02:27.520Z,27.87
2019-04-07T11:04:35.076Z,24.63
2019-04-07T11:06:44.049Z,27.48
2019-04-07T11:09:01.053Z,24.32
2019-04-07T11:11:09.596Z,21.60
2019-04-07T11:13:28.990Z,28.83
2019-04-07T11:15:48.742Z,20.30
2019-04-07T11:18:11.297Z,23.12
2019-04-07T11:20:22.750Z,20.00
2019-04-07T11:22:49.015Z,19.98
2019-04-07T11:24:55.807Z,21.95
2019-04-07T11:27:17.050Z,22.75
2019-04-07T11:29:23.909Z,20.20
2019-04-07T11:31:32.319Z,21.90
2019-04-07T11:33:45.039Z,23.85
2019-04-07T11:35:53.345Z,21.77
2019-04-07T11:38:17.942Z,24.00
2019-04-07T11:40:24.680Z,33.65
2019-04-07T11:42:46.657Z,23.02
2019-04-07T11:45:03.094Z,22.40
2019-04-07T11:47:15.457Z,22.95
2019-04-07T11:49:25.160Z,21.82
2019-04-07T11:51:40.647Z,19.67
2019-04-07T11:54:05.261Z,23.95
2019-04-07T11:56:32.737Z,23.12
2019-04-07T11:58:47.632Z,19.57
2019-04-07T12:01:12.807Z,20.05
2019-04-07T12:03:19.201Z,20.05
2019-04-07T12:05:28.717Z,20.82
2019-04-07T12:07:56.540Z,25.65
2019-04-07T12:10:30.078Z,22.02
2019-04-07T12:12:54.952Z,20.27
2019-04-07T12:15:19.650Z,20.55
2019-04-07T12:17:43.833Z,23.70
2019-04-07T12:19:55.109Z,24.05
2019-04-07T12:22:11.255Z,27.35
2019-04-07T12:24:24.672Z,22.48
2019-04-07T12:26:31.480Z,22.58
2019-04-07T12:28:49.118Z,23.10
2019-04-07T12:31:12.797Z,21.23
2019-04-07T12:33:20.043Z,24.67
2019-04-07T12:35:32.424Z,20.37
2019-04-07T12:37:54.195Z,27.75
2019-04-07T12:40:09.182Z,24.12
2019-04-07T12:42:20.334Z,20.30
2019-04-07T12:44:29.003Z,23.92
2019-04-07T12:48:47.954Z,24.82
2019-04-07T12:51:03.765Z,26.12
2019-04-07T12:53:25.081Z,23.90
2019-04-07T12:55:40.529Z,20.02
2019-04-07T12:57:56.573Z,25.70
2019-04-07T13:00:21.134Z,20.85
2019-04-07T13:02:28.406Z,22.82
2019-04-07T13:04:39.744Z,21.27
2019-04-07T13:06:48.057Z,21.12
2019-04-07T13:08:59.546Z,23.22
2019-04-07T13:11:31.232Z,21.62
2019-04-07T13:13:47.043Z,21.12
2019-04-07T13:15:58.234Z,21.82
2019-04-07T13:18:10.715Z,24.37
2019-04-07T13:20:31.140Z,21.80
2019-04-07T13:22:42.518Z,24.57
2019-04-07T13:25:00.165Z,21.35
2019-04-07T13:27:22.166Z,22.37
2019-04-07T13:29:38.723Z,23.98
2019-04-07T13:31:44.875Z,21.85
2019-04-07T13:33:59.583Z,24.80
2019-04-07T13:36:25.322Z,19.48
2019-04-07T13:38:33.924Z,24.25
2019-04-07T13:40:58.271Z,30.15
2019-04-07T13:43:16.493Z,23.40
2019-04-07T13:45:23.120Z,21.40
2019-04-07T13:47:33.002Z,23.40
2019-04-07T13:49:44.759Z,26.97
2019-04-07T13:52:00.348Z,21.30
2019-04-07T13:54:20.066Z,26.05
2019-04-07T13:56:50.665Z,25.32
2019-04-07T13:59:09.196Z,21.25
2019-04-07T14:03:50.447Z,21.65
2019-04-07T14:06:14.932Z,24.27
2019-04-07T14:08:29.942Z,21.77
2019-04-07T14:10:51.405Z,22.62
2019-04-07T14:13:11.960Z,19.75
2019-04-07T14:15:20.461Z,28.45
2019-04-07T14:17:44.914Z,17.25
2019-04-07T14:19:54.090Z,22.85
2019-04-07T14:22:00.673Z,22.07
2019-04-07T14:24:13.154Z,26.90
2019-04-07T14:26:22.241Z,24.52
2019-04-07T14:28:44.290Z,23.05
2019-04-07T14:31:10.880Z,21.97
2019-04-07T14:33:28.674Z,21.80
2019-04-07T14:35:36.974Z,22.73
2019-04-07T14:37:49.540Z,22.07
2019-04-07T14:40:03.657Z,23.07
2019-04-07T14:42:18.713Z,18.70
2019-04-07T14:44:39.065Z,25.08
2019-04-07T14:46:51.288Z,23.77
2019-04-07T14:49:02.535Z,24.32
2019-04-07T14:51:11.209Z,22.37
2019-04-07T14:53:22.173Z,22.82
2019-04-07T14:55:37.957Z,20.17
2019-04-07T14:57:51.155Z,20.40
2019-04-07T15:00:00.037Z,19.52
2019-04-07T15:02:07.375Z,20.32
2019-04-07T15:04:18.184Z,20.45
2019-04-07T15:06:30.934Z,21.87
2019-04-07T15:08:46.266Z,19.35
2019-04-07T15:10:56.232Z,22.05
2019-04-07T15:13:05.336Z,19.10
2019-04-07T15:15:12.420Z,19.50
2019-04-07T15:17:19.330Z,19.67
2019-04-07T15:19:26.016Z,23.30
2019-04-07T15:21:34.684Z,19.90
2019-04-07T15:23:44.831Z,22.30
2019-04-07T15:25:52.756Z,20.27
2019-04-07T15:28:01.177Z,22.65
2019-04-07T15:30:15.292Z,21.33
2019-04-07T15:32:24.193Z,18.02
2019-04-07T15:34:34.262Z,22.85
2019-04-07T15:36:41.460Z,19.15
2019-04-07T15:38:48.603Z,19.75
2019-04-07T15:40:55.921Z,19.45
2019-04-07T15:43:05.734Z,22.02
2019-04-07T15:45:13.347Z,22.13
2019-04-07T15:47:21.137Z,22.98
2019-04-07T15:49:29.515Z,20.12
2019-04-07T15:51:36.507Z,23.52
2019-04-07T15:53:46.425Z,25.27
2019-04-07T15:56:01.128Z,22.85
2019-04-07T15:58:00.105Z,20.80
2019-04-07T16:00:11.201Z,24.15
2019-04-07T16:02:18.059Z,29.42
2019-04-07T16:04:28.265Z,19.95
2019-04-07T16:06:35.541Z,23.60
2019-04-07T16:08:42.331Z,20.68
2019-04-07T16:10:49.066Z,22.50
2019-04-07T16:12:58.962Z,21.87
2019-04-07T16:15:04.928Z,20.30
2019-04-07T16:17:12.203Z,22.02
2019-04-07T16:19:33.109Z,24.72
2019-04-07T16:21:29.756Z,20.23
2019-04-07T16:23:37.487Z,24.92
2019-04-07T16:25:44.402Z,21.40
2019-04-07T16:27:51.559Z,21.30
2019-04-07T16:29:58.243Z,23.47
2019-04-07T16:32:05.112Z,20.55
2019-04-07T16:34:11.876Z,22.75
2019-04-07T16:36:18.567Z,23.22
2019-04-07T16:38:28.016Z,30.00
2019-04-07T16:40:35.062Z,23.20
2019-04-07T16:42:53.834Z,31.35
2019-04-07T16:44:53.696Z,29.40
2019-04-07T16:47:04.029Z,28.02
2019-04-07T16:49:11.510Z,24.67
2019-04-07T16:51:18.869Z,26.90
2019-04-07T16:53:25.896Z,23.27
2019-04-07T16:55:41.428Z,28.02
2019-04-07T16:57:50.307Z,30.40
2019-04-07T17:00:00.410Z,29.90
2019-04-07T17:02:08.035Z,30.52
2019-04-07T17:04:15.825Z,26.90
2019-04-07T17:06:22.946Z,27.50
2019-04-07T17:08:30.048Z,29.45
2019-04-07T17:10:37.095Z,32.38
2019-04-07T17:12:44.034Z,28.12
2019-04-07T17:14:53.215Z,37.95
2019-04-07T17:17:00.326Z,34.58
2019-04-07T17:19:07.627Z,34.50
2019-04-07T17:21:19.087Z,31.40
2019-04-07T17:23:26.187Z,35.50
2019-04-07T17:25:34.590Z,38.50
2019-04-07T17:27:42.519Z,36.23
2019-04-07T17:29:54.086Z,33.95
2019-04-07T17:32:01.676Z,33.18
2019-04-07T17:34:10.885Z,35.88
2019-04-07T17:36:21.010Z,39.73
2019-04-07T17:40:51.936Z,32.88
2019-04-07T17:43:02.929Z,32.53
2019-04-07T17:45:13.850Z,31.05
2019-04-07T17:47:23.444Z,34.03
2019-04-07T17:49:50.524Z,32.53
2019-04-07T17:52:11.077Z,34.20
2019-04-07T17:54:36.536Z,29.67
2019-04-07T17:57:04.055Z,37.70
2019-04-07T17:59:20.958Z,38.00
2019-04-07T18:01:33.375Z,49.95
2019-04-07T18:03:58.362Z,48.25
2019-04-07T18:06:10.090Z,59.50
2019-04-07T18:08:25.199Z,55.45
2019-04-07T18:10:32.445Z,62.53
2019-04-07T18:12:51.545Z,59.27
2019-04-07T18:15:17.882Z,55.38
2019-04-07T18:17:29.995Z,56.02
2019-04-07T18:19:54.785Z,56.18
2019-04-07T18:22:22.039Z,55.67
2019-04-07T18:24:37.779Z,49.13
2019-04-07T18:26:49.279Z,59.83
2019-04-07T18:29:05.861Z,57.30
2019-04-07T18:31:36.256Z,63.28
2019-04-07T18:34:02.477Z,69.27
2019-04-07T18:36:19.952Z,63.85
2019-04-07T18:38:34.260Z,68.45
2019-04-07T18:40:44.038Z,74.70
2019-04-07T18:43:02.744Z,64.22
2019-04-07T18:45:21.595Z,59.40
2019-04-07T18:50:07.131Z,74.10
2019-04-07T18:52:26.871Z,78.47
2019-04-07T18:54:41.108Z,70.57
2019-04-07T18:56:55.802Z,90.92
2019-04-07T18:59:21.926Z,121.20
2019-04-07T19:01:42.681Z,140.95
2019-04-07T19:03:55.987Z,111.60
2019-04-07T19:06:20.651Z,111.00
2019-04-07T19:08:37.868Z,112.00
2019-04-07T19:11:12.240Z,100.82
2019-04-07T19:13:18.541Z,105.83
2019-04-07T19:15:40.798Z,94.83
2019-04-07T19:17:50.339Z,107.78
2019-04-07T19:20:17.227Z,127.58
2019-04-07T19:22:34.616Z,131.80
2019-04-07T19:24:59.174Z,110.42
2019-04-07T19:27:28.688Z,136.92
2019-04-07T19:29:33.773Z,130.20
2019-04-07T19:31:52.209Z,121.47
2019-04-07T19:34:07.043Z,136.57
2019-04-07T19:36:31.382Z,128.68
2019-04-07T19:38:41.258Z,118.47
2019-04-07T19:40:49.249Z,115.22
2019-04-07T19:43:10.704Z,117.65
2019-04-07T19:47:50.455Z,115.90
2019-04-07T19:50:10.803Z,117.30
2019-04-07T19:52:25.086Z,97.55
2019-04-07T19:54:34.251Z,109.52
2019-04-07T19:58:51.358Z,112.47
2019-04-07T20:01:06.321Z,114.95
2019-04-07T20:03:22.181Z,110.28
2019-04-07T20:05:32.208Z,145.28
2019-04-07T20:07:56.086Z,135.78
2019-04-07T20:10:11.041Z,135.75
2019-04-07T20:12:21.105Z,118.53
2019-04-07T20:14:55.539Z,118.35
2019-04-07T20:17:02.773Z,132.65
2019-04-07T20:19:12.953Z,121.53
2019-04-07T20:21:40.131Z,116.85
2019-04-07T20:23:52.520Z,158.87
2019-04-07T20:26:18.593Z,153.00
2019-04-07T20:28:33.224Z,144.75
2019-04-07T20:30:49.629Z,157.45
2019-04-07T20:33:02.885Z,148.90
2019-04-07T20:35:15.949Z,155.97
2019-04-07T20:37:27.907Z,149.68
2019-04-07T20:39:56.722Z,152.40
2019-04-07T20:42:05.161Z,152.65
2019-04-07T20:44:19.320Z,152.65
2019-04-07T20:46:41.713Z,143.52
2019-04-07T20:48:49.642Z,149.47
2019-04-07T20:51:05.134Z,149.57
2019-04-07T20:53:29.872Z,151.82
2019-04-07T20:55:53.987Z,153.80
2019-04-07T20:58:24.305Z,146.30
2019-04-07T21:00:57.680Z,147.85
2019-04-07T21:03:22.084Z,143.15
2019-04-07T21:05:37.824Z,149.57
2019-04-07T21:07:44.956Z,137.15
2019-04-07T21:09:54.303Z,131.30
2019-04-07T21:12:03.528Z,126.10
2019-04-07T21:14:11.833Z,113.17
2019-04-07T21:16:33.344Z,115.55
2019-04-07T21:18:59.085Z,120.00
2019-04-07T21:21:12.293Z,114.82
2019-04-07T21:23:21.655Z,128.23
2019-04-07T21:25:33.829Z,127.02
2019-04-07T21:27:49.054Z,125.72
2019-04-07T21:30:00.608Z,131.47
2019-04-07T21:32:09.811Z,139.85
2019-04-07T21:34:34.739Z,144.40
2019-04-07T21:36:49.035Z,140.60
2019-04-07T21:39:14.268Z,143.37
2019-04-07T21:41:30.703Z,155.03
2019-04-07T21:43:43.407Z,149.65
2019-04-07T21:45:54.359Z,149.18
2019-04-07T21:48:10.368Z,152.35
2019-04-07T21:50:28.197Z,157.15
2019-04-07T21:52:54.484Z,178.55
2019-04-07T21:55:01.822Z,183.70
2019-04-07T21:57:26.768Z,178.85
2019-04-07T21:59:33.684Z,189.30
2019-04-07T22:01:51.296Z,192.95
2019-04-07T22:04:06.835Z,183.40
2019-04-07T22:06:17.986Z,175.05
2019-04-07T22:08:26.381Z,172.40
2019-04-07T22:10:34.005Z,174.93
2019-04-07T22:12:40.996Z,178.50
2019-04-07T22:14:47.898Z,165.35
2019-04-07T22:16:54.782Z,175.35
2019-04-07T22:19:02.686Z,160.72
2019-04-07T22:21:09.752Z,142.07
2019-04-07T22:23:16.738Z,142.65
2019-04-07T22:25:36.175Z,141.10
2019-04-07T22:27:44.142Z,142.05
2019-04-07T22:29:51.914Z,140.32
2019-04-07T22:31:59.811Z,146.80
2019-04-07T22:34:06.953Z,130.65
2019-04-07T22:36:14.631Z,127.38
2019-04-07T22:38:23.723Z,139.32
2019-04-07T22:40:34.222Z,135.97
2019-04-07T22:42:39.260Z,118.75
2019-04-07T22:44:46.041Z,127.65
2019-04-07T22:46:52.729Z,118.47
2019-04-07T22:48:59.708Z,122.70
2019-04-07T22:51:09.904Z,115.55
2019-04-07T22:53:15.155Z,111.05
2019-04-07T22:55:22.666Z,102.55
2019-04-07T22:57:31.349Z,109.60
2019-04-07T22:59:38.114Z,119.15
2019-04-07T23:01:45.850Z,128.72
2019-04-07T23:03:52.583Z,129.95
2019-04-07T23:06:00.988Z,125.02
2019-04-07T23:08:08.278Z,120.05
2019-04-07T23:10:15.992Z,108.55
2019-04-07T23:12:22.981Z,109.00
2019-04-07T23:14:29.790Z,110.70
2019-04-07T23:16:36.507Z,100.47
2019-04-07T23:18:43.274Z,99.65
2019-04-07T23:20:49.981Z,100.35
2019-04-07T23:22:56.765Z,96.28
2019-04-07T23:25:04.409Z,108.10
2019-04-07T23:27:12.460Z,97.65
2019-04-07T23:29:19.834Z,107.95
2019-04-07T23:31:27.869Z,101.65
2019-04-07T23:33:34.892Z,88.27
2019-04-07T23:35:41.585Z,83.12
2019-04-07T23:37:48.868Z,107.92
2019-04-07T23:39:55.675Z,97.78
2019-04-07T23:42:02.801Z,97.67
2019-04-07T23:44:09.797Z,95.28
2019-04-07T23:46:22.864Z,106.87
2019-04-07T23:48:25.043Z,106.25
2019-04-07T23:50:31.755Z,104.43
2019-04-07T23:52:39.063Z,114.25
2019-04-07T23:54:46.146Z,110.57
2019-04-07T23:56:54.004Z,111.35
2019-04-07T23:59:01.255Z,118.10
